Time;durP1;ratioP1;P1;durP2;ratioP2;P2;SDS_P1;SDS_P2;PMS_P1;PMS_P2;Temp;Humidity;BMP_temperature;BMP_pressure;BME280_temperature;BME280_humidity;BME280_pressure;Samples;Min_cycle;Max_cycle;Signal;HPM_P1;HPM_P2
2021/10/28 00:13:29;;;;;;;15.88;10.25;;;;;;;10.85;91.75;102036.34;4842617;29;20056;-83
2021/10/28 00:15:57;;;;;;;24.30;9.95;;;;;;;10.83;91.83;102032.88;4853389;29;20052;-83
2021/10/28 00:18:43;;;;;;;19.20;10.98;;;;;;;10.82;91.61;102034.63;4852913;29;20043;-83
2021/10/28 00:21:09;;;;;;;17.27;10.38;;;;;;;10.80;91.85;102022.47;4869572;29;20325;-83
2021/10/28 00:23:42;;;;;;;17.15;11.35;;;;;;;10.80;91.91;102030.31;4820726;29;20105;-83
2021/10/28 00:26:09;;;;;;;19.33;11.32;;;;;;;10.79;92.06;102029.47;4854104;29;20064;-83
2021/10/28 00:28:35;;;;;;;21.27;11.07;;;;;;;10.80;91.84;102027.72;4852909;29;20360;-83
2021/10/28 00:31:02;;;;;;;14.00;11.07;;;;;;;10.79;91.76;102015.47;4853332;29;20040;-83
2021/10/28 00:33:29;;;;;;;22.52;12.20;;;;;;;10.77;92.03;102020.78;4852901;29;20062;-83
2021/10/28 00:35:54;;;;;;;19.38;11.07;;;;;;;10.78;91.81;102019.88;4819131;29;20030;-83
2021/10/28 00:38:20;;;;;;;24.13;11.73;;;;;;;10.79;92.12;102018.09;4864457;29;20037;-83
2021/10/28 00:40:46;;;;;;;21.17;11.15;;;;;;;10.77;91.95;102015.56;4822220;29;20108;-83
2021/10/28 00:43:11;;;;;;;17.77;11.70;;;;;;;10.77;91.79;102015.56;4868789;29;20041;-83
2021/10/28 00:45:40;;;;;;;22.15;11.40;;;;;;;10.76;91.92;102016.44;4851746;29;20056;-83
2021/10/28 00:48:05;;;;;;;17.20;10.25;;;;;;;10.75;92.07;102009.44;4852855;29;20105;-83
2021/10/28 00:50:31;;;;;;;19.88;11.20;;;;;;;10.72;92.06;102013.03;4852268;29;20112;-83
2021/10/28 00:52:56;;;;;;;16.48;10.73;;;;;;;10.73;92.06;102014.75;4852416;29;20060;-83
2021/10/28 00:55:22;;;;;;;17.33;10.70;;;;;;;10.71;92.18;101997.31;4820537;29;20085;-83
2021/10/28 00:57:47;;;;;;;17.70;10.88;;;;;;;10.71;92.17;101997.31;4851619;29;20065;-83
2021/10/28 01:00:13;;;;;;;16.00;10.68;;;;;;;10.71;92.10;102002.56;4850627;29;20109;-83
2021/10/28 01:02:38;;;;;;;20.00;10.85;;;;;;;10.70;92.20;102003.47;4851140;29;20069;-83
2021/10/28 01:05:06;;;;;;;18.30;10.13;;;;;;;10.68;91.96;101994.81;4850635;29;20059;-83
2021/10/28 01:07:32;;;;;;;15.27;11.18;;;;;;;10.66;92.07;102000.06;4834845;29;20042;-83
2021/10/28 01:09:57;;;;;;;19.63;11.43;;;;;;;10.64;91.83;102007.09;4820813;29;20028;-83
2021/10/28 01:12:23;;;;;;;18.27;11.50;;;;;;;10.63;91.66;102008.00;4852391;29;20037;-83
2021/10/28 01:14:48;;;;;;;19.55;12.60;;;;;;;10.59;91.66;102000.22;4852621;29;20097;-83
2021/10/28 01:17:14;;;;;;;20.38;11.13;;;;;;;10.54;91.78;101995.94;4852178;29;20041;-83
2021/10/28 01:19:39;;;;;;;23.38;14.35;;;;;;;10.52;91.85;102000.38;4836686;29;20182;-83
2021/10/28 01:22:05;;;;;;;20.65;12.48;;;;;;;10.50;91.78;101996.91;4834649;29;20033;-83
2021/10/28 01:24:30;;;;;;;23.13;12.65;;;;;;;10.48;91.94;102000.47;4852116;29;20324;-83
2021/10/28 01:27:06;;;;;;;22.15;12.98;;;;;;;10.43;91.66;101995.31;4836923;29;20041;-83
2021/10/28 01:29:32;;;;;;;21.75;13.15;;;;;;;10.39;91.78;101993.69;4836344;29;20033;-83
2021/10/28 01:31:58;;;;;;;19.80;13.05;;;;;;;10.38;91.75;101991.94;4837078;29;20037;-83
2021/10/28 01:34:24;;;;;;;26.92;14.48;;;;;;;10.36;91.89;101993.72;4836199;29;20025;-83
2021/10/28 01:36:49;;;;;;;22.80;13.93;;;;;;;10.33;91.65;101981.59;4867826;29;20093;-83
2021/10/28 01:39:16;;;;;;;22.67;13.35;;;;;;;10.30;91.87;101989.47;4836336;29;20193;-83
2021/10/28 01:41:42;;;;;;;20.83;13.68;;;;;;;10.28;91.46;101982.53;4851970;29;20033;-83
2021/10/28 01:44:08;;;;;;;22.33;13.90;;;;;;;10.26;91.95;101976.44;4867543;29;20065;-83
2021/10/28 01:46:33;;;;;;;20.45;13.23;;;;;;;10.23;92.09;101972.16;4866849;29;20047;-83
2021/10/28 01:48:58;;;;;;;19.40;13.45;;;;;;;10.21;92.10;101978.34;4818160;29;20118;-83
2021/10/28 01:51:24;;;;;;;21.77;12.95;;;;;;;10.21;92.29;101965.25;4848378;29;20037;-83
2021/10/28 01:53:50;;;;;;;18.67;12.93;;;;;;;10.16;91.97;101966.19;4851924;29;20049;-83
2021/10/28 01:56:15;;;;;;;22.40;13.52;;;;;;;10.16;92.11;101971.41;4868401;29;20044;-83
2021/10/28 01:58:41;;;;;;;21.90;13.45;;;;;;;10.15;92.31;101974.06;4836066;29;20270;-83
2021/10/28 02:04:34;;;;;;;22.05;12.80;;;;;;;10.11;92.22;101954.06;4868536;29;20195;-84
2021/10/28 02:07:01;;;;;;;20.88;12.80;;;;;;;10.10;92.39;101961.09;4846795;29;20029;-84
2021/10/28 02:09:26;;;;;;;19.60;12.88;;;;;;;10.08;92.50;101949.78;4876886;29;20037;-84
2021/10/28 02:11:52;;;;;;;20.60;13.07;;;;;;;10.07;92.36;101952.44;4848777;29;20065;-84
2021/10/28 02:14:17;;;;;;;27.02;13.57;;;;;;;10.04;92.22;101948.13;4861039;29;20208;-84
2021/10/28 02:16:43;;;;;;;25.83;12.98;;;;;;;10.03;92.41;101945.53;4845466;29;20025;-84
2021/10/28 02:19:11;;;;;;;25.88;12.20;;;;;;;10.03;92.55;101941.16;4861217;29;20114;-83
2021/10/28 02:21:36;;;;;;;21.08;12.88;;;;;;;10.02;92.26;101944.66;4829205;29;20077;-84
2021/10/28 02:24:01;;;;;;;24.65;13.05;;;;;;;10.00;92.30;101949.06;4843086;29;20037;-84
2021/10/28 02:26:27;;;;;;;25.38;12.40;;;;;;;9.99;92.54;101948.22;4853839;29;20094;-84
2021/10/28 02:28:54;;;;;;;26.23;13.98;;;;;;;9.98;92.38;101950.84;4846063;29;20359;-83
2021/10/28 02:31:20;;;;;;;20.35;12.60;;;;;;;9.98;92.39;101949.09;4861155;29;20045;-84
2021/10/28 02:33:45;;;;;;;20.17;12.70;;;;;;;9.96;92.41;101947.41;4877580;29;20232;-84
2021/10/28 02:36:11;;;;;;;20.52;12.82;;;;;;;9.95;92.34;101949.19;4830042;29;20029;-84
2021/10/28 02:38:36;;;;;;;18.73;12.38;;;;;;;9.93;92.42;101945.72;4861423;29;20115;-84
2021/10/28 02:41:02;;;;;;;24.35;13.25;;;;;;;9.91;92.41;101942.25;4876466;29;20101;-84
2021/10/28 02:43:27;;;;;;;22.20;13.55;;;;;;;9.90;92.37;101942.31;4830521;29;20037;-84
2021/10/28 02:45:53;;;;;;;19.85;13.00;;;;;;;9.89;92.60;101941.44;4830687;29;20025;-84
2021/10/28 02:48:18;;;;;;;17.70;12.32;;;;;;;9.87;92.43;101937.13;4830689;29;20038;-84
2021/10/28 02:50:46;;;;;;;21.35;12.85;;;;;;;9.87;92.33;101934.50;4860321;29;20086;-84
2021/10/28 02:53:12;;;;;;;25.52;13.15;;;;;;;9.84;92.63;101921.50;4826370;29;20053;-84
2021/10/28 02:55:37;;;;;;;23.63;13.35;;;;;;;9.83;92.48;101920.63;4839857;29;20033;-83
2021/10/28 02:58:03;;;;;;;23.30;12.73;;;;;;;9.83;92.66;101920.63;4851458;29;20356;-83
2021/10/28 03:00:28;;;;;;;23.00;13.23;;;;;;;9.82;92.57;101920.66;4820391;29;20238;-83
2021/10/28 03:02:54;;;;;;;23.80;13.45;;;;;;;9.80;92.67;101913.72;4850326;29;20045;-83
2021/10/28 03:05:19;;;;;;;21.20;13.23;;;;;;;9.79;92.70;101913.75;4866755;29;20077;-83
2021/10/28 03:07:44;;;;;;;20.73;12.98;;;;;;;9.79;92.60;101911.13;4838683;29;20047;-83
2021/10/28 03:10:11;;;;;;;18.77;12.30;;;;;;;9.78;92.41;101912.88;4849751;29;20037;-84
2021/10/28 03:12:39;;;;;;;17.50;11.88;;;;;;;9.77;92.75;101905.94;4867014;29;20056;-83
2021/10/28 03:15:06;;;;;;;19.65;11.95;;;;;;;9.76;92.50;101904.19;4836508;29;20041;-83
2021/10/28 03:28:04;;;;;;;17.15;11.52;;;;;;;9.68;92.48;101897.38;4837745;29;20226;-83
2021/10/28 03:30:29;;;;;;;18.42;11.90;;;;;;;9.68;92.81;101887.81;4849479;29;20053;-83
2021/10/28 03:32:55;;;;;;;19.63;12.30;;;;;;;9.66;92.33;101886.97;4816673;29;20352;-83
2021/10/28 03:35:21;;;;;;;21.15;12.40;;;;;;;9.66;92.81;101888.72;4847033;29;20082;-83
2021/10/28 03:37:55;;;;;;;19.55;12.07;;;;;;;9.64;92.59;101883.53;4845496;29;20049;-83
2021/10/28 04:30:04;;;;;;;19.30;10.73;;;;;;;9.45;92.57;101856.03;4852703;29;20366;-83
2021/10/28 04:32:30;;;;;;;13.38;11.30;;;;;;;9.45;92.60;101858.63;4849702;29;20041;-83
2021/10/28 04:34:56;;;;;;;16.80;10.43;;;;;;;9.44;92.63;101854.28;4834921;29;20037;-83
2021/10/28 04:37:21;;;;;;;13.27;10.18;;;;;;;9.43;92.87;101848.19;4818621;29;20030;-83
2021/10/28 04:39:47;;;;;;;15.18;10.98;;;;;;;9.42;92.77;101851.69;4835165;29;20092;-83
2021/10/28 04:42:13;;;;;;;14.48;10.90;;;;;;;9.41;92.88;101850.00;4849609;29;20037;-83
2021/10/28 04:44:40;;;;;;;21.23;10.30;;;;;;;9.41;92.77;101855.22;4849752;29;20049;-83
2021/10/28 04:47:05;;;;;;;13.75;10.00;;;;;;;9.38;92.85;101843.03;4853586;29;20037;-83
2021/10/28 04:49:31;;;;;;;14.98;10.35;;;;;;;9.37;93.16;101843.97;4837895;29;20229;-83
2021/10/28 04:51:56;;;;;;;18.98;10.70;;;;;;;9.37;92.96;101843.97;4853372;29;20320;-83
2021/10/28 04:54:22;;;;;;;16.20;10.35;;;;;;;9.36;92.95;101842.22;4869295;29;20037;-83
2021/10/28 04:56:47;;;;;;;20.90;10.52;;;;;;;9.36;92.83;101851.81;4823233;29;20030;-83
2021/10/28 04:59:13;;;;;;;12.38;9.52;;;;;;;9.37;92.88;101845.72;4837392;29;20044;-83
2021/10/28 05:01:38;;;;;;;13.30;9.52;;;;;;;9.36;92.96;101843.97;4822890;29;20476;-83
2021/10/28 05:04:04;;;;;;;14.82;10.20;;;;;;;9.35;93.00;101839.63;4837667;29;20046;-83
2021/10/28 05:06:29;;;;;;;18.25;10.10;;;;;;;9.35;92.78;101839.63;4869281;29;20029;-83
2021/10/28 05:08:55;;;;;;;13.10;9.52;;;;;;;9.35;93.02;101845.75;4850404;29;20034;-83
2021/10/28 05:11:20;;;;;;;16.27;10.02;;;;;;;9.35;92.90;101844.84;4852467;29;20113;-83
2021/10/28 05:13:46;;;;;;;11.07;9.18;;;;;;;9.34;93.03;101841.41;4852849;29;20044;-83
2021/10/28 05:16:11;;;;;;;12.05;9.40;;;;;;;9.34;92.78;101830.94;4852964;29;20068;-83
2021/10/28 05:18:40;;;;;;;10.15;8.45;;;;;;;9.34;92.91;101848.38;4852519;29;20037;-83
2021/10/28 05:21:09;;;;;;;18.38;9.20;;;;;;;9.33;92.84;101842.31;4853313;29;20052;-83
2021/10/28 05:23:35;;;;;;;;;;;;;;;9.35;92.88;101842.25;4837098;29;20218;-83
2021/10/28 05:26:00;;;;;;;10.02;7.60;;;;;;;9.34;92.81;101843.16;4852551;29;19924;-83
2021/10/28 05:28:26;;;;;;;14.98;9.45;;;;;;;9.34;93.01;101830.94;4851356;29;20049;-82
2021/10/28 05:30:51;;;;;;;13.18;8.70;;;;;;;9.35;92.91;101835.28;4853056;29;20076;-83
2021/10/28 05:33:17;;;;;;;9.88;8.50;;;;;;;9.33;92.79;101830.97;4868866;29;20049;-83
2021/10/28 05:35:42;;;;;;;9.80;8.75;;;;;;;9.32;92.81;101831.88;4836965;29;20251;-83
2021/10/28 05:38:08;;;;;;;11.80;8.70;;;;;;;9.31;92.82;101830.97;4840632;29;20034;-83
2021/10/28 05:40:33;;;;;;;10.45;8.05;;;;;;;9.31;92.73;101828.38;4837016;29;20294;-83
2021/10/28 05:42:59;;;;;;;11.50;8.25;;;;;;;9.31;92.88;101832.75;4852438;29;20052;-83
2021/10/28 05:45:25;;;;;;;8.95;7.65;;;;;;;9.31;92.97;101828.38;4851621;29;20048;-83
2021/10/28 05:47:50;;;;;;;10.95;8.40;;;;;;;9.32;93.14;101832.72;4837103;29;20037;-84
2021/10/28 05:50:19;;;;;;;15.02;8.27;;;;;;;9.32;92.80;101824.03;4837716;29;20043;-83
2021/10/28 05:52:46;;;;;;;9.85;7.85;;;;;;;9.32;93.06;101826.66;4874996;29;20329;-83
2021/10/28 05:55:11;;;;;;;9.02;7.70;;;;;;;9.32;92.95;101824.88;4851868;29;20041;-83
2021/10/28 05:57:37;;;;;;;10.45;7.68;;;;;;;9.33;92.93;101826.63;4851215;29;20043;-83
2021/10/28 06:00:06;;;;;;;10.38;7.88;;;;;;;9.33;92.78;101820.50;4849538;29;20052;-83
2021/10/28 06:02:31;;;;;;;12.93;8.27;;;;;;;9.32;92.61;101819.66;4851609;29;20306;-83
2021/10/28 06:04:57;;;;;;;10.23;8.07;;;;;;;9.32;92.64;101821.41;4851696;29;20057;-83
2021/10/28 06:07:22;;;;;;;8.30;7.40;;;;;;;9.33;92.82;101825.72;4828510;29;20045;-83
2021/10/28 06:09:48;;;;;;;8.85;7.85;;;;;;;9.30;92.66;101824.06;4844041;29;20057;-83
2021/10/28 06:12:15;;;;;;;10.30;8.00;;;;;;;9.31;92.58;101817.91;4852076;29;20047;-84
2021/10/28 06:14:40;;;;;;;11.15;8.02;;;;;;;9.31;92.71;101820.53;4836707;29;20206;-83
2021/10/28 06:17:11;;;;;;;10.05;8.57;;;;;;;9.31;92.58;101822.28;4837126;29;20048;-83
2021/10/28 06:19:37;;;;;;;10.95;8.30;;;;;;;9.29;92.46;101824.94;4852462;29;20049;-83
2021/10/28 06:22:03;;;;;;;16.17;8.18;;;;;;;9.29;92.58;101821.47;4839698;29;20118;-83
2021/10/28 06:24:28;;;;;;;8.70;7.65;;;;;;;9.27;92.58;101823.25;4824987;29;20033;-84
2021/10/28 06:26:54;;;;;;;12.60;8.75;;;;;;;9.26;92.40;101813.66;4825968;29;20271;-83
2021/10/28 06:29:19;;;;;;;14.40;8.65;;;;;;;9.25;92.66;101815.44;4826192;29;20267;-83
2021/10/28 06:31:47;;;;;;;14.95;8.32;;;;;;;9.26;92.21;101813.66;4823895;29;20142;-83
2021/10/28 06:34:18;;;;;;;11.07;8.23;;;;;;;9.25;92.30;101809.34;4828187;29;20086;-83
2021/10/28 06:36:44;;;;;;;10.27;8.15;;;;;;;9.26;92.51;101811.06;4845244;29;20389;-82
2021/10/28 06:39:10;;;;;;;9.85;8.25;;;;;;;9.27;92.35;101804.94;4846331;29;20045;-83
2021/10/28 06:41:36;;;;;;;12.35;8.65;;;;;;;9.26;92.63;101803.22;4842775;29;20177;-84
2021/10/28 06:44:01;;;;;;;14.65;8.65;;;;;;;9.25;92.48;101802.38;4859038;29;20163;-83
2021/10/28 06:46:27;;;;;;;13.02;8.38;;;;;;;9.26;92.34;101803.22;4829353;29;20029;-83
2021/10/28 06:48:53;;;;;;;16.25;8.57;;;;;;;9.26;92.35;101801.47;4829951;29;20068;-83
2021/10/28 06:51:19;;;;;;;19.58;9.23;;;;;;;9.26;92.59;101801.47;4844456;29;20054;-83
2021/10/28 06:53:56;;;;;;;14.57;8.93;;;;;;;9.27;92.40;101803.19;4834103;29;20061;-83
2021/10/28 07:04:34;;;;;;;13.40;8.00;;;;;;;9.30;92.45;101799.69;4844896;29;20174;-83
2021/10/28 07:07:00;;;;;;;11.25;8.30;;;;;;;9.31;92.42;101807.47;4844620;29;20056;-83
2021/10/28 07:09:32;;;;;;;14.65;8.93;;;;;;;9.31;92.36;101799.63;4852784;29;20038;-83
2021/10/28 07:12:45;;;;;;;13.85;9.27;;;;;;;9.32;92.79;101796.13;4827765;29;20109;-83
2021/10/28 07:14:49;;;;;;;11.93;8.10;;;;;;;9.32;92.49;101801.34;4827780;29;20120;-83
2021/10/28 07:33:39;;;;;;;19.83;8.95;;;;;;;9.44;92.25;101781.06;4847574;29;20049;-83
2021/10/28 07:39:27;;;;;;;13.57;8.57;;;;;;;9.50;92.45;101775.72;4849320;29;20048;-83
2021/10/28 07:58:01;;;;;;;12.88;8.88;;;;;;;9.69;92.07;101765.72;4843786;29;20045;-83
2021/10/28 08:23:51;;;;;;;14.80;9.20;;;;;;;9.95;92.29;101729.38;4850719;29;20029;-83
2021/10/28 08:29:17;;;;;;;15.20;8.68;;;;;;;10.03;91.89;101723.09;4867844;29;20410;-83
2021/10/28 08:31:43;;;;;;;12.27;8.82;;;;;;;10.06;91.69;101726.50;4848069;29;20361;-83
2021/10/28 08:34:09;;;;;;;17.50;9.23;;;;;;;10.08;91.83;101714.22;4848325;29;20042;-83
2021/10/28 08:36:39;;;;;;;12.68;8.82;;;;;;;10.11;91.78;101716.75;4854337;29;20037;-83
2021/10/28 08:39:04;;;;;;;15.63;9.57;;;;;;;10.13;91.61;101708.84;4864098;29;20033;-84
2021/10/28 08:41:30;;;;;;;11.40;9.52;;;;;;;10.17;91.59;101706.13;4863628;29;20029;-84
2021/10/28 08:43:56;;;;;;;12.95;8.90;;;;;;;10.22;91.30;101710.38;4834758;29;20358;-83
2021/10/28 08:46:26;;;;;;;15.82;9.32;;;;;;;10.25;91.15;101703.31;4846085;29;20104;-83
2021/10/28 08:48:57;;;;;;;15.68;9.13;;;;;;;10.28;90.86;101699.78;4814036;29;20048;-83
2021/10/28 08:54:07;;;;;;;12.57;9.50;;;;;;;10.32;90.79;101698.84;4848274;29;20045;-83
2021/10/28 09:29:31;;;;;;;11.95;8.95;;;;;;;10.80;89.79;101663.47;4843689;29;20045;-83
2021/10/28 09:32:07;;;;;;;13.30;9.07;;;;;;;10.84;89.53;101662.47;4848759;29;20037;-83
2021/10/28 09:34:50;;;;;;;12.10;9.20;;;;;;;10.89;89.67;101652.72;4837979;29;20089;-83
2021/10/28 09:43:36;;;;;;;16.58;9.07;;;;;;;11.05;89.47;101637.44;4775931;30;20059;-83
2021/10/28 09:46:32;;;;;;;11.93;8.45;;;;;;;11.12;89.11;101633.72;4848501;29;20249;-83
2021/10/28 09:51:46;;;;;;;11.77;8.85;;;;;;;11.21;88.86;101632.59;4833105;29;20096;-83
2021/10/28 09:59:30;;;;;;;11.68;8.63;;;;;;;11.34;88.29;101619.03;4841924;29;20121;-83
2021/10/28 10:02:06;;;;;;;13.50;8.60;;;;;;;11.40;88.31;101617.97;4816107;29;20101;-83
2021/10/28 10:04:32;;;;;;;11.35;8.40;;;;;;;11.44;88.35;101624.84;4845968;29;20068;-83
2021/10/28 10:06:59;;;;;;;9.10;8.20;;;;;;;11.49;88.26;101620.28;4865159;29;20109;-83
2021/10/28 10:09:25;;;;;;;14.07;8.60;;;;;;;11.55;88.24;101631.50;4833333;29;20038;-83
2021/10/28 10:11:51;;;;;;;12.77;8.35;;;;;;;11.58;87.98;101615.69;4853621;29;20333;-83
2021/10/28 10:14:19;;;;;;;8.30;7.55;;;;;;;11.62;87.77;101618.13;4846849;29;20159;-83
2021/10/28 10:16:44;;;;;;;14.10;8.60;;;;;;;11.64;87.61;101616.34;4838672;29;20034;-83
2021/10/28 10:19:11;;;;;;;13.05;8.48;;;;;;;11.66;87.57;101618.91;4848749;29;20233;-83
2021/10/28 10:21:39;;;;;;;10.57;8.38;;;;;;;11.71;87.50;101616.97;4841139;29;20087;-83
2021/10/28 11:29:11;;;;;;;8.57;6.93;;;;;;;12.59;83.90;101548.31;4838572;29;20049;-83
2021/10/28 12:44:29;;;;;;;9.88;6.32;;;;;;;13.33;83.31;101432.31;4835812;29;20047;-84
2021/10/28 12:47:15;;;;;;;6.30;5.80;;;;;;;13.33;82.52;101421.78;4850597;29;20289;-84
2021/10/28 12:50:50;;;;;;;8.43;5.68;;;;;;;13.35;83.02;101422.56;4851628;29;20041;-84
2021/10/28 13:36:04;;;;;;;5.70;5.18;;;;;;;13.58;82.66;101382.94;4853500;29;20135;-84
2021/10/28 13:52:23;;;;;;;8.27;5.13;;;;;;;13.60;81.63;101367.94;4853285;29;20098;-83
2021/10/28 14:21:34;;;;;;;6.38;5.30;;;;;;;13.59;80.79;101334.66;4850823;29;20122;-83
2021/10/28 14:24:32;;;;;;;8.32;5.38;;;;;;;13.58;81.33;101330.31;4836856;29;20453;-83
2021/10/28 15:29:04;;;;;;;7.13;4.35;;;;;;;13.30;81.37;101293.84;4842096;29;20077;-83
2021/10/28 15:39:42;;;;;;;4.05;3.65;;;;;;;13.17;81.12;101275.13;4854065;29;20047;-84
2021/10/28 15:42:47;;;;;;;6.18;3.70;;;;;;;13.16;81.60;101276.06;4847284;29;20122;-83
2021/10/28 16:22:32;;;;;;;8.00;4.30;;;;;;;12.76;81.42;101251.50;4841192;29;20068;-83
2021/10/28 16:24:57;;;;;;;9.93;4.30;;;;;;;12.75;80.90;101246.31;4846793;29;20064;-83
2021/10/28 16:27:23;;;;;;;6.35;4.18;;;;;;;12.72;80.44;101241.22;4847354;29;20052;-83
2021/10/28 16:29:48;;;;;;;6.18;4.72;;;;;;;12.71;81.24;101237.72;4851809;29;20053;-83
2021/10/28 16:32:14;;;;;;;4.43;4.03;;;;;;;12.68;82.22;101243.13;4847132;29;20339;-83
2021/10/28 16:34:40;;;;;;;8.25;3.95;;;;;;;12.63;81.14;101238.03;4833054;29;20036;-83
2021/10/28 16:37:05;;;;;;;6.85;4.68;;;;;;;12.62;81.59;101235.47;4847292;29;20045;-83
2021/10/28 16:39:31;;;;;;;7.28;4.05;;;;;;;12.58;81.47;101228.66;4850105;29;20210;-83
2021/10/28 16:41:56;;;;;;;5.22;3.90;;;;;;;12.53;81.54;101234.09;4855709;29;20049;-83
2021/10/28 16:44:22;;;;;;;6.75;4.05;;;;;;;12.50;81.61;101229.00;4832416;29;20105;-83
2021/10/28 16:46:48;;;;;;;5.70;3.20;;;;;;;12.48;81.82;101226.44;4850691;29;20510;-83
2021/10/28 16:49:13;;;;;;;4.78;3.72;;;;;;;12.46;81.61;101235.28;4822416;29;20244;-83
2021/10/28 16:51:39;;;;;;;4.00;3.35;;;;;;;12.44;81.90;101224.84;4813446;29;20041;-83
2021/10/28 16:54:04;;;;;;;3.85;3.47;;;;;;;12.41;81.33;101226.75;4822073;29;20036;-83
2021/10/28 16:56:30;;;;;;;4.05;3.30;;;;;;;12.37;81.54;101223.41;4850558;29;20045;-84
2021/10/28 16:58:55;;;;;;;4.38;3.13;;;;;;;12.35;81.30;101227.00;4830184;29;20029;-83
2021/10/28 17:01:21;;;;;;;6.63;4.18;;;;;;;12.31;81.46;101235.94;4865257;29;20239;-83
2021/10/28 17:03:46;;;;;;;7.40;3.55;;;;;;;12.25;81.89;101239.66;4824164;29;20037;-84
2021/10/28 17:06:15;;;;;;;4.95;3.95;;;;;;;12.19;82.47;101235.53;4843492;29;20053;-83
2021/10/28 17:08:42;;;;;;;4.95;3.60;;;;;;;12.15;82.50;101228.69;4840831;29;20045;-83
2021/10/28 17:11:07;;;;;;;9.68;3.80;;;;;;;12.09;82.24;101227.16;4869069;29;20345;-84
2021/10/28 17:13:33;;;;;;;8.13;3.90;;;;;;;12.06;82.85;101226.41;4825245;29;20103;-84
2021/10/28 17:15:58;;;;;;;5.05;3.95;;;;;;;12.03;82.97;101216.06;4851725;29;20241;-83
2021/10/28 17:18:24;;;;;;;4.72;3.88;;;;;;;12.00;83.11;101211.78;4840894;29;20045;-83
2021/10/28 17:20:50;;;;;;;4.15;3.80;;;;;;;11.98;83.15;101215.38;4830928;29;20040;-83
2021/10/28 17:23:16;;;;;;;6.05;3.60;;;;;;;11.95;83.04;101211.13;4849714;29;20052;-83
2021/10/28 17:25:46;;;;;;;5.40;4.05;;;;;;;11.93;83.64;101212.94;4854425;29;20041;-83
2021/10/28 17:28:11;;;;;;;4.78;4.25;;;;;;;11.90;83.18;101211.31;4822538;29;20082;-83
2021/10/28 17:30:37;;;;;;;4.78;4.22;;;;;;;11.89;83.55;101208.72;4852771;29;20382;-83
2021/10/28 17:33:03;;;;;;;6.63;4.55;;;;;;;11.87;83.65;101218.41;4834691;29;20368;-83
2021/10/28 17:35:29;;;;;;;4.75;4.07;;;;;;;11.85;83.53;101210.59;4834461;29;20041;-84
2021/10/28 17:37:54;;;;;;;9.00;4.60;;;;;;;11.85;83.70;101212.38;4824926;29;20045;-83
2021/10/28 17:40:20;;;;;;;6.50;5.63;;;;;;;11.84;83.59;101211.53;4845253;29;20030;-83
2021/10/28 17:42:46;;;;;;;5.63;5.03;;;;;;;11.84;83.33;101201.03;4847591;29;20045;-83
2021/10/28 17:45:12;;;;;;;8.10;4.68;;;;;;;11.84;83.23;101203.66;4832536;29;20029;-83
2021/10/28 17:47:39;;;;;;;7.80;4.72;;;;;;;11.85;83.47;101197.47;4833963;29;20049;-83
2021/10/28 17:50:05;;;;;;;11.60;4.70;;;;;;;11.87;83.12;101202.66;4849103;29;20121;-83
2021/10/28 17:52:31;;;;;;;9.80;4.70;;;;;;;11.87;83.23;101202.66;4833286;29;20068;-83
2021/10/28 17:54:56;;;;;;;6.78;4.90;;;;;;;11.87;83.14;101200.03;4849521;29;20037;-83
2021/10/28 17:57:22;;;;;;;5.50;4.35;;;;;;;11.85;82.90;101205.34;4832157;29;20101;-83
2021/10/28 17:59:47;;;;;;;9.48;4.35;;;;;;;11.85;83.23;101210.59;4833661;29;20349;-83
2021/10/28 18:02:13;;;;;;;6.60;4.90;;;;;;;11.83;82.78;101212.44;4849261;29;20037;-83
2021/10/28 18:04:39;;;;;;;8.00;4.95;;;;;;;11.80;83.13;101206.44;4850225;29;20594;-83
2021/10/28 18:07:04;;;;;;;5.10;4.60;;;;;;;11.78;82.99;101203.88;4849929;29;20045;-84
2021/10/28 18:09:30;;;;;;;6.15;4.70;;;;;;;11.77;83.29;101211.81;4845649;29;20050;-83
2021/10/28 18:11:55;;;;;;;5.20;4.80;;;;;;;11.74;83.25;101206.72;4832222;29;20042;-84
2021/10/28 18:14:23;;;;;;;6.40;4.32;;;;;;;11.70;83.42;101201.56;4838822;29;20060;-83
2021/10/28 18:16:49;;;;;;;8.17;5.07;;;;;;;11.67;83.97;101204.31;4847418;29;20053;-83
2021/10/28 18:19:15;;;;;;;5.20;4.70;;;;;;;11.65;83.75;101198.28;4846480;29;20048;-83
2021/10/28 18:21:43;;;;;;;5.05;4.63;;;;;;;11.64;84.22;101200.94;4849837;29;20296;-83
2021/10/28 18:24:09;;;;;;;6.47;4.72;;;;;;;11.61;84.52;101199.31;4856190;29;20045;-83
2021/10/28 18:26:34;;;;;;;7.22;5.30;;;;;;;11.59;84.63;101203.78;4829892;29;20042;-83
2021/10/28 18:29:00;;;;;;;7.25;5.90;;;;;;;11.57;84.22;101196.84;4849110;29;20267;-83
2021/10/28 18:31:27;;;;;;;10.00;5.43;;;;;;;11.55;84.12;101191.69;4839319;29;20242;-82
2021/10/28 18:33:53;;;;;;;7.80;5.32;;;;;;;11.54;84.81;101195.22;4848403;29;20236;-82
2021/10/28 18:36:19;;;;;;;9.30;5.40;;;;;;;11.53;84.73;101193.50;4825986;29;20037;-82
2021/10/28 18:38:47;;;;;;;6.25;5.40;;;;;;;11.52;84.59;101194.44;4830840;29;20086;-81
2021/10/28 18:41:13;;;;;;;7.35;5.30;;;;;;;11.49;84.59;101187.50;4834451;29;20103;-81
2021/10/28 18:43:40;;;;;;;10.15;5.88;;;;;;;11.48;85.03;101192.84;4847103;29;20053;-84
2021/10/28 18:46:05;;;;;;;11.88;5.75;;;;;;;11.45;84.99;101185.94;4842365;29;20025;-81
2021/10/28 18:48:30;;;;;;;8.70;5.32;;;;;;;11.44;85.09;101194.72;4846251;29;20045;-81
2021/10/28 18:50:56;;;;;;;8.52;5.90;;;;;;;11.44;85.23;101194.72;4848111;29;20053;-82
2021/10/28 18:53:21;;;;;;;9.30;5.45;;;;;;;11.43;84.97;101190.38;4826711;29;20226;-79
2021/10/28 18:55:47;;;;;;;5.90;4.85;;;;;;;11.41;85.30;101183.50;4825949;29;20085;-80
2021/10/28 18:58:12;;;;;;;6.07;5.47;;;;;;;11.41;85.24;101186.13;4844362;29;20036;-82
2021/10/28 19:00:38;;;;;;;8.98;5.40;;;;;;;11.40;85.27;101187.03;4842113;29;20241;-81
2021/10/28 19:03:03;;;;;;;6.97;5.22;;;;;;;11.39;85.34;101178.31;4843355;29;20337;-81
2021/10/28 19:05:29;;;;;;;5.85;5.25;;;;;;;11.39;85.45;101185.31;4841616;29;20064;-81
2021/10/28 19:07:55;;;;;;;6.03;5.43;;;;;;;11.37;85.37;101187.13;4829963;29;20371;-81
2021/10/28 19:10:20;;;;;;;7.32;5.68;;;;;;;11.36;85.82;101181.03;4858894;29;20041;-81
2021/10/28 19:12:46;;;;;;;9.68;5.97;;;;;;;11.36;85.46;101193.31;4854261;29;20172;-81
2021/10/28 19:15:12;;;;;;;9.82;5.97;;;;;;;11.34;85.53;101185.50;4842746;29;20249;-83
2021/10/28 19:17:39;;;;;;;9.23;6.13;;;;;;;11.33;85.73;101175.91;4845560;29;20157;-81
2021/10/28 19:20:06;;;;;;;8.18;6.20;;;;;;;11.33;85.72;101176.78;4838807;29;20041;-81
2021/10/28 19:22:32;;;;;;;6.47;5.88;;;;;;;11.32;85.62;101169.81;4826486;29;20085;-81
2021/10/28 19:25:02;;;;;;;10.27;5.90;;;;;;;11.33;85.49;101168.03;4846205;29;20040;-81
2021/10/28 19:27:27;;;;;;;9.00;6.03;;;;;;;11.32;85.93;101167.19;4835448;29;20341;-81
2021/10/28 19:29:59;;;;;;;7.15;5.93;;;;;;;11.31;86.07;101162.88;4846467;29;20037;-81
2021/10/28 19:32:26;;;;;;;9.27;5.85;;;;;;;11.33;85.75;101168.03;4855439;29;20045;-81
2021/10/28 19:34:53;;;;;;;10.15;6.10;;;;;;;11.31;85.85;101160.25;4860574;29;20048;-81
2021/10/28 19:47:30;;;;;;;9.13;5.07;;;;;;;11.37;85.35;101151.31;4859212;29;20078;-81
2021/10/28 19:49:56;;;;;;;8.60;5.32;;;;;;;11.38;85.38;101154.78;4824203;29;20393;-81
2021/10/28 19:52:21;;;;;;;8.93;5.72;;;;;;;11.37;85.10;101148.69;4842307;29;20045;-81
2021/10/28 19:54:47;;;;;;;10.57;5.47;;;;;;;11.36;85.10;101140.88;4843415;29;20052;-81
2021/10/28 19:57:18;;;;;;;11.00;5.80;;;;;;;11.38;85.02;101146.91;4842165;29;20041;-81
2021/10/28 20:21:10;;;;;;;5.68;5.03;;;;;;;11.39;84.07;101123.25;4865709;29;20238;-80
2021/10/28 20:23:35;;;;;;;6.00;5.32;;;;;;;11.39;84.02;101127.63;4833203;29;20117;-80
2021/10/28 20:26:00;;;;;;;6.00;5.40;;;;;;;11.38;84.14;101126.78;4839497;29;20037;-81
2021/10/28 20:28:27;;;;;;;5.78;5.10;;;;;;;11.39;84.02;101127.63;4868535;29;20051;-82
2021/10/28 20:30:57;;;;;;;8.45;5.45;;;;;;;11.37;83.96;101121.59;4844983;29;20046;-81
2021/10/28 20:33:23;;;;;;;5.30;4.80;;;;;;;11.36;84.45;101122.50;4831375;29;20382;-81
2021/10/28 20:38:17;;;;;;;7.87;5.33;;;;;;;11.35;83.97;101116.44;4861578;29;20368;-81
2021/10/28 20:40:42;;;;;;;6.32;5.20;;;;;;;11.34;83.92;101118.16;4831680;29;20381;-82